Time;durP1;ratioP1;P1;durP2;ratioP2;P2;SDS_P1;SDS_P2;PMS_P1;PMS_P2;Temp;Humidity;BMP_temperature;BMP_pressure;BME280_temperature;BME280_humidity;BME280_pressure;Samples;Min_cycle;Max_cycle;Signal;HPM_P1;HPM_P2
2022/11/03 00:01:56;;;;;;;3.47;1.30;;;;;;;10.13;70.26;101138.34;4996229;28;20216;-80
2022/11/03 00:04:23;;;;;;;3.90;1.50;;;;;;;10.11;70.69;101127.91;4986669;28;20589;-81
2022/11/03 00:06:51;;;;;;;5.53;1.60;;;;;;;10.11;70.88;101111.41;4984735;28;20223;-81
2022/11/03 00:09:19;;;;;;;3.47;1.30;;;;;;;10.21;70.42;101120.91;4986271;28;20217;-80
2022/11/03 00:11:47;;;;;;;4.83;1.43;;;;;;;10.23;70.73;101113.94;4984885;28;20216;-80
2022/11/03 00:14:14;;;;;;;13.47;2.20;;;;;;;10.23;70.81;101105.25;4995870;28;20213;-80
2022/11/03 00:16:41;;;;;;;8.90;1.60;;;;;;;10.24;70.89;101101.75;4991947;28;20200;-80
2022/11/03 00:19:09;;;;;;;4.93;1.80;;;;;;;10.12;70.18;101108.75;4996176;28;20226;-80
2022/11/03 00:21:37;;;;;;;6.13;1.40;;;;;;;10.17;70.60;101115.69;4994589;28;20197;-81
2022/11/03 00:24:04;;;;;;;2.10;1.17;;;;;;;10.03;71.03;101113.16;4994266;28;20201;-81
2022/11/03 00:26:32;;;;;;;4.33;1.40;;;;;;;10.10;71.19;101100.09;4994285;28;20205;-80
2022/11/03 00:29:00;;;;;;;4.33;1.73;;;;;;;10.14;71.27;101086.16;4994034;28;20234;-79
2022/11/03 00:31:29;;;;;;;6.63;1.50;;;;;;;10.19;70.64;101090.47;4993124;28;20207;-80
2022/11/03 00:33:55;;;;;;;2.23;1.40;;;;;;;10.14;71.25;101080.06;4993945;28;20208;-81
2022/11/03 00:36:24;;;;;;;3.87;1.90;;;;;;;10.18;71.32;101086.13;4994035;28;20211;-81
2022/11/03 00:38:51;;;;;;;4.80;1.60;;;;;;;10.16;71.54;101078.31;4993659;28;20227;-80
2022/11/03 00:41:19;;;;;;;4.40;1.50;;;;;;;10.14;71.34;101073.09;4991390;28;20200;-81
2022/11/03 00:43:47;;;;;;;5.77;1.50;;;;;;;10.16;71.72;101067.88;4994371;28;20260;-81
2022/11/03 00:46:13;;;;;;;4.77;1.13;;;;;;;10.08;70.88;101086.19;4993656;28;20309;-80
2022/11/03 00:48:40;;;;;;;3.97;1.30;;;;;;;10.11;71.39;101088.78;4992684;28;20228;-80
2022/11/03 00:51:10;;;;;;;3.43;1.60;;;;;;;10.15;71.77;101074.00;4992856;28;20200;-80
2022/11/03 00:53:40;;;;;;;3.17;1.17;;;;;;;10.23;70.98;101086.97;4984686;28;20650;-80
2022/11/03 00:56:09;;;;;;;3.30;1.13;;;;;;;10.09;70.27;101098.38;4985369;28;20220;-79
2022/11/03 00:58:35;;;;;;;7.53;2.40;;;;;;;10.17;70.78;101103.53;4984725;28;20227;-80
2022/11/03 01:01:06;;;;;;;5.33;1.70;;;;;;;10.21;70.87;101107.88;4983506;28;20202;-81
2022/11/03 01:03:34;;;;;;;5.73;2.20;;;;;;;10.07;70.63;101121.00;4992831;28;20247;-81
2022/11/03 01:08:46;;;;;;;4.10;1.70;;;;;;;10.18;70.41;101112.22;4993716;28;20310;-80
2022/11/03 01:13:59;;;;;;;3.93;1.17;;;;;;;10.11;71.02;101094.00;4992991;28;20747;-79
2022/11/03 01:16:26;;;;;;;4.67;1.37;;;;;;;10.21;70.49;101080.88;4993072;28;20216;-81
2022/11/03 01:18:54;;;;;;;4.53;1.43;;;;;;;10.22;70.65;101082.63;4994030;28;20219;-80
2022/11/03 01:21:20;;;;;;;3.10;1.20;;;;;;;10.21;71.03;101088.72;4994237;28;20218;-80
2022/11/03 01:23:48;;;;;;;2.40;1.43;;;;;;;10.04;70.32;101088.84;4993377;28;20199;-81
2022/11/03 01:26:15;;;;;;;2.27;1.57;;;;;;;10.08;70.73;101078.38;4994332;28;20210;-80
2022/11/03 01:28:45;;;;;;;10.00;1.57;;;;;;;10.10;70.45;101071.38;4995388;28;20261;-80
2022/11/03 01:31:13;;;;;;;5.00;1.40;;;;;;;10.11;70.86;101067.06;4993183;28;20237;-79
2022/11/03 01:33:40;;;;;;;4.40;1.70;;;;;;;10.05;70.89;101060.13;4994273;28;20213;-80
2022/11/03 01:36:06;;;;;;;6.30;1.50;;;;;;;10.07;70.73;101047.09;4993287;28;20215;-81
2022/11/03 01:38:34;;;;;;;4.67;1.40;;;;;;;10.12;71.25;101027.03;4993134;28;20239;-80
2022/11/03 01:41:03;;;;;;;4.53;1.67;;;;;;;10.15;70.62;101027.03;4994430;28;20213;-80
2022/11/03 01:43:30;;;;;;;3.23;1.40;;;;;;;10.17;70.98;101025.28;4996599;28;20231;-79
2022/11/03 01:46:03;;;;;;;2.73;1.40;;;;;;;10.08;70.50;101026.19;4997552;28;20205;-81
2022/11/03 01:48:32;;;;;;;3.70;1.50;;;;;;;10.14;70.62;101033.97;4997581;28;20238;-82
2022/11/03 01:50:59;;;;;;;3.03;1.37;;;;;;;10.09;70.72;101025.34;4998311;28;20210;-81
2022/11/03 01:53:28;;;;;;;3.73;1.30;;;;;;;10.13;70.69;101028.78;4997308;28;20221;-80
2022/11/03 01:55:56;;;;;;;3.73;1.40;;;;;;;10.13;70.92;101016.59;4997353;28;20244;-80
2022/11/03 01:58:29;;;;;;;3.33;1.27;;;;;;;10.16;70.66;101015.69;4997088;28;20284;-79
2022/11/03 02:00:58;;;;;;;4.00;1.27;;;;;;;10.18;71.02;101002.66;4998432;28;20216;-81
2022/11/03 02:03:27;;;;;;;3.40;1.80;;;;;;;10.15;71.30;100985.28;4997571;28;20208;-81
2022/11/03 02:05:55;;;;;;;4.10;1.30;;;;;;;9.96;71.45;100976.72;4997524;28;20213;-82
2022/11/03 02:08:27;;;;;;;2.67;1.10;;;;;;;10.02;71.47;100963.66;4998749;28;20649;-81
2022/11/03 02:10:53;;;;;;;4.27;1.43;;;;;;;9.97;72.03;100952.41;4998102;28;20214;-81
2022/11/03 02:13:22;;;;;;;4.07;1.20;;;;;;;10.03;72.02;100934.09;4997883;28;20222;-80
2022/11/03 02:15:53;;;;;;;3.23;1.57;;;;;;;10.04;72.12;100932.34;4996530;28;20211;-81
2022/11/03 02:18:24;;;;;;;4.20;1.50;;;;;;;10.02;71.17;100952.34;4996910;28;20228;-80
2022/11/03 02:21:03;;;;;;;3.87;1.30;;;;;;;10.05;71.23;100970.56;4996508;28;20209;-79
2022/11/03 02:23:36;;;;;;;2.17;1.20;;;;;;;10.04;70.61;100979.28;4996996;28;20211;-81
2022/11/03 02:26:07;;;;;;;4.87;1.40;;;;;;;10.11;70.87;100986.19;4995947;28;20223;-81
2022/11/03 02:28:34;;;;;;;5.83;1.90;;;;;;;10.06;71.39;100975.78;4996707;28;20245;-81
2022/11/03 02:31:09;;;;;;;4.37;1.50;;;;;;;10.09;70.76;100975.78;4996205;28;20217;-81
2022/11/03 02:33:47;;;;;;;3.50;1.33;;;;;;;10.04;71.33;100980.16;4994902;28;20221;-81
2022/11/03 02:36:20;;;;;;;3.70;1.23;;;;;;;10.02;70.78;100981.91;4995638;28;20207;-81
2022/11/03 02:38:52;;;;;;;3.80;1.40;;;;;;;9.99;71.33;100981.06;4996015;28;20229;-82
2022/11/03 02:41:26;;;;;;;7.90;1.47;;;;;;;9.83;71.08;100975.97;4995162;28;20625;-82
2022/11/03 02:43:55;;;;;;;8.50;2.57;;;;;;;9.93;71.46;100969.81;4995521;28;20246;-81
2022/11/03 02:46:24;;;;;;;4.67;1.17;;;;;;;9.81;71.23;100964.69;4996069;28;20222;-80
2022/11/03 02:48:52;;;;;;;7.67;1.77;;;;;;;9.96;71.19;100966.31;4996379;28;20733;-81
2022/11/03 02:51:18;;;;;;;4.13;1.23;;;;;;;10.02;71.72;100952.34;4995161;28;20218;-79
2022/11/03 02:53:56;;;;;;;5.63;1.47;;;;;;;10.01;71.50;100951.50;4994951;28;20215;-81
2022/11/03 02:56:24;;;;;;;5.40;2.10;;;;;;;10.01;71.99;100932.34;4996292;28;20584;-81
2022/11/03 02:58:56;;;;;;;4.47;1.40;;;;;;;10.00;72.01;100918.47;4996640;28;20222;-81
2022/11/03 03:01:28;;;;;;;2.53;1.23;;;;;;;9.97;72.54;100915.88;4995203;28;20210;-81
2022/11/03 03:03:59;;;;;;;6.30;1.57;;;;;;;9.99;72.20;100908.91;4995632;28;20228;-81
2022/11/03 03:06:30;;;;;;;5.03;2.53;;;;;;;9.97;72.25;100902.84;4996370;28;20684;-81
2022/11/03 03:09:00;;;;;;;3.30;1.37;;;;;;;9.97;71.73;100908.06;4995764;28;20242;-80
2022/11/03 03:11:37;;;;;;;3.73;1.33;;;;;;;9.91;71.77;100911.59;4994568;28;20216;-82
2022/11/03 03:14:08;;;;;;;4.67;1.47;;;;;;;9.76;72.36;100908.25;4995178;28;20202;-81
2022/11/03 03:16:42;;;;;;;5.93;1.80;;;;;;;9.85;72.29;100885.56;4994708;28;20217;-80
2022/11/03 03:19:18;;;;;;;4.63;1.93;;;;;;;9.76;72.07;100890.84;4994967;28;20641;-82
2022/11/03 03:21:49;;;;;;;6.70;1.40;;;;;;;9.79;72.24;100892.56;4995926;28;20738;-81
2022/11/03 03:24:23;;;;;;;5.23;1.73;;;;;;;9.76;72.84;100864.78;4996981;28;20216;-81
2022/11/03 03:26:53;;;;;;;3.67;1.33;;;;;;;9.76;72.34;100858.72;4995160;28;20447;-82
2022/11/03 03:29:26;;;;;;;4.80;1.90;;;;;;;9.75;72.42;100850.00;4994827;28;20245;-82
2022/11/03 03:31:56;;;;;;;4.87;1.83;;;;;;;9.73;72.37;100854.38;4994466;28;20211;-81
2022/11/03 03:34:25;;;;;;;5.00;2.17;;;;;;;9.69;72.81;100858.78;4996058;28;20221;-82
2022/11/03 03:36:54;;;;;;;4.80;1.67;;;;;;;9.69;72.55;100858.78;4995356;28;20210;-80
2022/11/03 03:39:23;;;;;;;5.40;1.40;;;;;;;9.72;72.42;100855.25;4994618;28;20240;-80
2022/11/03 03:41:52;;;;;;;6.43;2.33;;;;;;;9.80;72.23;100858.66;4995515;28;20210;-82
2022/11/03 03:44:20;;;;;;;2.87;1.50;;;;;;;9.68;71.56;100864.00;4994604;28;20237;-82
2022/11/03 03:46:52;;;;;;;5.60;1.43;;;;;;;9.56;71.81;100874.53;4993985;28;20213;-80
2022/11/03 03:49:19;;;;;;;6.33;1.70;;;;;;;9.71;72.63;100856.13;4994230;28;20235;-81
2022/11/03 03:51:48;;;;;;;4.63;1.37;;;;;;;9.79;72.39;100845.63;4995055;28;20220;-81
2022/11/03 03:54:14;;;;;;;3.40;1.40;;;;;;;9.77;71.77;100860.44;4995853;28;20260;-81
2022/11/03 03:56:44;;;;;;;4.97;1.80;;;;;;;9.79;71.97;100862.16;4994908;28;20210;-82
2022/11/03 03:59:12;;;;;;;4.07;1.33;;;;;;;9.88;71.91;100859.44;4994482;28;20231;-82
2022/11/03 04:01:38;;;;;;;2.93;1.13;;;;;;;9.89;72.58;100834.22;4994321;28;20221;-80
2022/11/03 04:04:05;;;;;;;3.57;1.40;;;;;;;9.91;72.28;100838.56;4994754;28;20207;-82
2022/11/03 04:06:31;;;;;;;5.10;1.67;;;;;;;9.69;72.55;100840.53;4993524;28;20247;-82
2022/11/03 04:08:58;;;;;;;3.73;1.40;;;;;;;9.65;72.58;100825.78;4994343;28;20232;-80
2022/11/03 04:22:23;;;;;;;4.50;1.60;;;;;;;9.92;71.79;100819.44;4992700;28;20688;-80
2022/11/03 04:24:51;;;;;;;7.00;1.33;;;;;;;9.91;71.82;100814.22;4995383;28;20213;-80
2022/11/03 04:27:38;;;;;;;7.33;1.70;;;;;;;9.88;71.96;100814.28;4993210;28;20221;-82
2022/11/03 04:30:14;;;;;;;5.23;2.07;;;;;;;9.93;71.92;100815.09;4989010;28;20246;-81
2022/11/03 04:32:43;;;;;;;2.63;1.30;;;;;;;9.99;71.57;100824.56;4994516;28;20224;-80
2022/11/03 04:35:15;;;;;;;4.60;1.40;;;;;;;10.03;71.89;100816.72;4994114;28;20241;-80
2022/11/03 04:37:42;;;;;;;3.30;1.47;;;;;;;10.06;72.13;100819.28;4994459;28;20249;-80
2022/11/03 04:40:14;;;;;;;4.27;1.57;;;;;;;10.10;72.00;100794.91;4994946;28;20233;-81
2022/11/03 04:42:41;;;;;;;3.13;1.27;;;;;;;10.04;72.24;100801.94;4992904;28;20213;-81
2022/11/03 04:45:21;;;;;;;3.07;1.53;;;;;;;10.01;72.78;100792.41;4995032;28;20311;-80
2022/11/03 04:47:49;;;;;;;4.47;1.50;;;;;;;10.02;72.67;100783.69;4994231;28;20209;-80
2022/11/03 04:50:19;;;;;;;3.67;1.20;;;;;;;9.96;72.60;100773.31;4994836;28;20226;-81
2022/11/03 04:52:46;;;;;;;4.50;1.63;;;;;;;10.01;72.56;100766.31;4992158;28;20209;-81
2022/11/03 04:55:15;;;;;;;3.53;1.50;;;;;;;9.97;72.55;100764.63;4993268;28;20233;-80
2022/11/03 04:57:42;;;;;;;4.33;1.50;;;;;;;9.91;73.39;100747.31;4995586;28;20987;-81
2022/11/03 05:00:14;;;;;;;6.67;1.60;;;;;;;9.87;73.19;100740.41;4993097;28;20237;-81
2022/11/03 05:02:41;;;;;;;3.83;1.53;;;;;;;9.90;72.91;100736.91;4992877;28;20211;-81
2022/11/03 05:05:16;;;;;;;2.50;1.40;;;;;;;9.82;73.41;100730.91;4995566;28;20210;-81
2022/11/03 05:07:43;;;;;;;3.57;1.50;;;;;;;9.85;73.49;100720.44;4993691;28;20212;-81
2022/11/03 05:10:15;;;;;;;4.00;1.60;;;;;;;9.81;73.31;100716.13;4995187;28;20260;-82
2022/11/03 05:12:41;;;;;;;3.50;1.40;;;;;;;9.81;73.87;100718.72;4992532;28;20213;-82
2022/11/03 05:15:22;;;;;;;5.77;1.47;;;;;;;9.80;73.37;100714.41;4995339;28;20209;-81
2022/11/03 05:17:49;;;;;;;4.23;1.80;;;;;;;9.78;73.55;100703.16;4993038;28;20215;-81
2022/11/03 05:20:30;;;;;;;5.60;1.70;;;;;;;9.64;73.54;100718.94;4993132;28;20266;-82
2022/11/03 05:22:57;;;;;;;8.73;1.77;;;;;;;9.54;74.23;100698.16;4992036;28;20928;-81
2022/11/03 05:25:38;;;;;;;6.13;1.47;;;;;;;9.61;74.01;100685.06;4994163;28;20215;-80
2022/11/03 05:28:13;;;;;;;4.10;1.70;;;;;;;9.65;74.34;100677.22;4993470;28;20271;-81
2022/11/03 05:30:40;;;;;;;7.20;1.83;;;;;;;9.73;74.00;100669.28;4993924;28;20207;-80
2022/11/03 05:33:18;;;;;;;8.10;2.10;;;;;;;9.74;73.81;100684.91;4993354;28;20221;-82
2022/11/03 05:35:46;;;;;;;4.97;1.53;;;;;;;9.63;74.36;100676.38;4994284;28;20240;-81
2022/11/03 05:38:15;;;;;;;2.20;1.40;;;;;;;9.67;74.44;100669.34;4992539;28;20215;-81
2022/11/03 05:40:42;;;;;;;3.10;1.40;;;;;;;9.51;74.37;100666.94;4991853;28;20707;-81
2022/11/03 05:43:12;;;;;;;6.37;2.03;;;;;;;9.67;74.26;100662.44;4993288;28;20258;-81
2022/11/03 05:45:39;;;;;;;4.60;1.70;;;;;;;9.60;74.52;100675.53;4992298;28;20223;-82
2022/11/03 05:48:18;;;;;;;4.70;2.53;;;;;;;9.68;74.26;100673.72;4995075;28;20210;-81
2022/11/03 05:50:46;;;;;;;5.57;2.27;;;;;;;9.66;74.29;100665.91;4993936;28;20263;-82
2022/11/03 05:53:25;;;;;;;4.27;1.50;;;;;;;9.64;74.30;100669.41;4991537;28;20218;-81
2022/11/03 05:55:52;;;;;;;2.63;1.50;;;;;;;9.66;74.36;100663.28;4993124;28;20213;-81
2022/11/03 05:58:24;;;;;;;2.90;1.37;;;;;;;9.66;74.59;100654.63;4992545;28;20230;-80
2022/11/03 06:00:50;;;;;;;6.07;1.40;;;;;;;9.71;74.82;100640.66;4992894;28;20214;-80
2022/11/03 06:03:21;;;;;;;3.30;1.50;;;;;;;9.78;74.38;100643.19;4991432;28;20209;-79
2022/11/03 06:05:49;;;;;;;6.13;1.80;;;;;;;9.63;74.16;100660.75;4993529;28;20204;-80
2022/11/03 06:08:20;;;;;;;4.90;1.63;;;;;;;9.71;74.53;100652.81;4993380;28;20238;-82
2022/11/03 06:10:49;;;;;;;4.23;1.67;;;;;;;9.61;74.73;100653.78;4992588;28;20301;-83
2022/11/03 06:13:19;;;;;;;6.33;1.80;;;;;;;9.52;75.46;100632.19;4992901;28;20560;-80
2022/11/03 06:15:48;;;;;;;2.47;1.57;;;;;;;9.66;75.38;100623.34;4993035;28;20209;-80
2022/11/03 06:18:16;;;;;;;6.73;1.57;;;;;;;9.59;75.44;100619.94;4993114;28;20214;-79
2022/11/03 06:20:50;;;;;;;4.30;1.43;;;;;;;9.69;75.19;100621.56;4992861;28;20559;-79
2022/11/03 06:23:19;;;;;;;7.07;1.73;;;;;;;9.72;75.41;100624.13;4992168;28;20217;-82
2022/11/03 06:25:46;;;;;;;5.63;1.83;;;;;;;9.74;75.31;100621.50;4992815;28;20208;-81
2022/11/03 06:28:19;;;;;;;3.63;1.57;;;;;;;9.85;75.25;100619.63;4992227;28;20222;-79
2022/11/03 06:30:46;;;;;;;4.07;1.90;;;;;;;9.80;75.22;100621.41;4994324;28;20211;-80
2022/11/03 06:33:15;;;;;;;4.03;1.60;;;;;;;9.85;75.56;100617.03;4997486;28;20214;-81
2022/11/03 06:35:42;;;;;;;6.53;1.57;;;;;;;9.91;75.79;100609.13;4995742;28;20204;-81
2022/11/03 06:38:17;;;;;;;5.63;1.70;;;;;;;9.92;75.67;100594.31;4994921;28;20253;-80
2022/11/03 06:40:44;;;;;;;4.90;2.17;;;;;;;9.94;75.59;100593.41;4997645;28;20210;-79
2022/11/03 06:43:18;;;;;;;7.20;2.47;;;;;;;9.96;75.51;100595.16;4995224;28;20305;-82
2022/11/03 06:45:53;;;;;;;5.63;1.83;;;;;;;9.94;75.17;100598.63;4996097;28;20231;-81
2022/11/03 06:48:25;;;;;;;6.03;1.90;;;;;;;9.90;75.38;100591.72;4995722;28;20230;-79
2022/11/03 06:50:52;;;;;;;2.93;1.30;;;;;;;9.89;75.75;100574.38;4995374;28;20225;-82
2022/11/03 06:53:26;;;;;;;5.87;1.87;;;;;;;9.99;75.40;100584.66;4996122;28;20221;-79
2022/11/03 06:55:54;;;;;;;5.37;1.63;;;;;;;9.97;75.24;100591.63;4996870;28;20214;-81
2022/11/03 06:58:26;;;;;;;3.60;1.70;;;;;;;9.92;75.28;100583.88;4999511;28;20720;-81
2022/11/03 07:00:55;;;;;;;4.60;1.80;;;;;;;9.85;75.40;100587.47;4999517;28;20211;-81
2022/11/03 07:03:26;;;;;;;7.37;2.17;;;;;;;9.94;75.36;100569.09;4999651;28;20271;-80
2022/11/03 07:05:57;;;;;;;4.10;1.50;;;;;;;10.04;75.68;100577.66;4999788;28;20210;-81
2022/11/03 07:08:28;;;;;;;4.03;1.40;;;;;;;10.03;75.62;100566.34;5000051;28;20281;-81
2022/11/03 07:11:01;;;;;;;3.00;1.37;;;;;;;10.03;75.43;100565.47;4999311;28;20210;-80
2022/11/03 07:13:30;;;;;;;2.10;1.33;;;;;;;10.08;75.77;100572.34;4999160;28;20270;-81
2022/11/03 07:15:56;;;;;;;5.33;2.00;;;;;;;10.15;75.42;100567.91;4998940;28;20214;-80
2022/11/03 07:18:27;;;;;;;3.83;1.77;;;;;;;10.16;75.39;100559.19;4999275;28;20229;-80
2022/11/03 07:20:55;;;;;;;3.30;1.40;;;;;;;10.16;75.48;100568.78;4999214;28;20218;-80
2022/11/03 07:23:28;;;;;;;3.77;1.63;;;;;;;10.17;75.19;100567.88;4998355;28;20221;-81
2022/11/03 07:25:58;;;;;;;4.47;1.43;;;;;;;10.16;75.29;100563.56;4999953;28;20590;-81
2022/11/03 07:28:37;;;;;;;4.53;1.47;;;;;;;10.25;75.28;100558.22;4999570;28;20224;-78
2022/11/03 07:31:13;;;;;;;5.30;1.57;;;;;;;10.34;75.28;100555.47;4998762;28;20284;-80
2022/11/03 07:33:40;;;;;;;4.83;1.93;;;;;;;10.36;74.89;100563.28;4998938;28;20244;-80
2022/11/03 07:36:10;;;;;;;3.73;1.87;;;;;;;10.19;75.08;100576.53;4999079;28;20208;-80
2022/11/03 07:38:38;;;;;;;5.40;1.70;;;;;;;10.31;75.04;100571.19;4998774;28;20236;-81
2022/11/03 07:41:06;;;;;;;6.90;1.73;;;;;;;10.28;75.14;100579.88;4997162;28;20218;-81
2022/11/03 07:43:34;;;;;;;2.80;1.70;;;;;;;10.37;74.53;100573.69;4998710;28;20214;-81
2022/11/03 07:46:03;;;;;;;4.17;1.50;;;;;;;10.39;74.48;100577.16;4998231;28;20774;-81
2022/11/03 07:48:36;;;;;;;6.00;1.57;;;;;;;10.45;74.53;100582.25;4997594;28;20233;-80
2022/11/03 07:51:15;;;;;;;3.63;1.60;;;;;;;10.43;74.50;100591.00;4996833;28;20236;-79
2022/11/03 07:53:45;;;;;;;6.83;1.63;;;;;;;10.47;74.59;100574.41;4997890;28;20214;-79
2022/11/03 07:56:19;;;;;;;8.43;1.77;;;;;;;10.47;74.48;100585.72;4997770;28;20215;-80
2022/11/03 07:58:47;;;;;;;3.43;1.83;;;;;;;10.43;74.58;100570.13;4997362;28;20251;-80
2022/11/03 08:01:24;;;;;;;4.87;2.00;;;;;;;10.55;74.82;100553.41;4997031;28;20214;-80
2022/11/03 08:03:51;;;;;;;4.17;1.90;;;;;;;10.41;74.73;100559.72;4997583;28;20213;-80
2022/11/03 08:06:18;;;;;;;4.60;1.63;;;;;;;10.40;75.09;100549.28;4997860;28;20217;-81
2022/11/03 08:08:45;;;;;;;3.80;2.00;;;;;;;10.49;75.01;100529.13;4996866;28;20720;-79
2022/11/03 08:11:12;;;;;;;4.10;1.60;;;;;;;10.49;74.78;100529.13;4996720;28;20209;-79
2022/11/03 08:13:38;;;;;;;5.90;2.30;;;;;;;10.55;75.03;100530.78;4997492;28;20210;-81
2022/11/03 08:16:05;;;;;;;5.27;1.87;;;;;;;10.70;74.90;100524.41;4996486;28;20212;-79
2022/11/03 08:18:32;;;;;;;5.33;1.93;;;;;;;10.72;75.24;100513.06;4996278;28;20236;-80
2022/11/03 08:20:58;;;;;;;2.97;1.40;;;;;;;10.84;74.74;100514.59;4996083;28;20217;-80
2022/11/03 08:23:25;;;;;;;2.87;1.60;;;;;;;10.87;74.66;100529.31;4995923;28;20213;-81
2022/11/03 08:25:52;;;;;;;5.17;1.53;;;;;;;10.91;74.71;100533.59;4996634;28;20678;-80
2022/11/03 08:28:19;;;;;;;8.47;2.07;;;;;;;10.93;74.60;100532.69;4996246;28;20241;-80
2022/11/03 08:30:45;;;;;;;4.33;1.70;;;;;;;10.90;74.99;100524.03;4995780;28;20230;-80
2022/11/03 08:33:12;;;;;;;3.53;1.67;;;;;;;10.89;74.78;100524.94;4996272;28;20736;-81
2022/11/03 08:35:38;;;;;;;5.37;1.70;;;;;;;10.89;75.33;100517.09;4995732;28;20212;-80
2022/11/03 08:38:04;;;;;;;3.60;1.43;;;;;;;10.98;75.24;100495.16;4995795;28;20601;-79
2022/11/03 08:40:31;;;;;;;3.10;1.73;;;;;;;10.98;75.14;100492.53;4995554;28;20679;-80
2022/11/03 08:43:01;;;;;;;4.37;1.60;;;;;;;10.97;75.58;100481.25;4995408;28;20858;-80
2022/11/03 08:45:28;;;;;;;3.63;1.80;;;;;;;11.07;75.08;100474.94;4995996;28;20235;-80
2022/11/03 08:47:54;;;;;;;4.00;1.93;;;;;;;11.14;75.67;100452.19;4996284;28;20213;-80
2022/11/03 08:50:21;;;;;;;3.13;1.77;;;;;;;11.22;75.71;100445.03;4995747;28;20228;-80
2022/11/03 08:52:48;;;;;;;2.73;1.70;;;;;;;11.23;75.63;100461.56;4995977;28;20211;-80
2022/11/03 08:55:14;;;;;;;7.47;2.67;;;;;;;11.24;75.09;100447.63;4996038;28;20215;-80
2022/11/03 08:57:41;;;;;;;4.77;1.40;;;;;;;11.38;74.96;100461.25;4996128;28;20210;-81
2022/11/03 09:00:10;;;;;;;4.13;1.67;;;;;;;11.43;75.27;100461.13;4995811;28;20232;-80
2022/11/03 09:02:37;;;;;;;3.67;1.50;;;;;;;11.46;75.12;100453.25;4995811;28;20219;-81
2022/11/03 09:05:04;;;;;;;3.17;1.53;;;;;;;11.49;74.66;100447.91;4996098;28;20217;-81
2022/11/03 09:07:31;;;;;;;3.73;2.17;;;;;;;11.51;75.17;100452.22;4995916;28;20212;-80
2022/11/03 09:09:57;;;;;;;3.90;1.67;;;;;;;11.45;75.08;100449.75;4995282;28;20236;-80
2022/11/03 09:12:24;;;;;;;5.07;1.40;;;;;;;11.52;75.30;100453.09;4995682;28;20209;-80
2022/11/03 09:14:50;;;;;;;4.97;1.50;;;;;;;11.57;75.58;100435.53;4995613;28;20216;-80
2022/11/03 09:17:18;;;;;;;4.13;1.77;;;;;;;11.67;75.17;100426.59;4994938;28;20205;-80
2022/11/03 09:19:44;;;;;;;2.87;1.20;;;;;;;11.76;76.66;100414.19;4993793;28;20257;-78
2022/11/03 09:22:11;;;;;;;3.93;2.30;;;;;;;11.89;76.43;100403.44;4993167;28;20208;-80
2022/11/03 09:24:37;;;;;;;3.47;1.43;;;;;;;11.91;73.69;100447.84;4993542;28;20225;-80
2022/11/03 09:27:04;;;;;;;5.03;1.57;;;;;;;11.95;73.24;100478.25;4994093;28;20236;-79
2022/11/03 09:29:31;;;;;;;9.10;1.83;;;;;;;12.07;73.36;100487.56;4994244;28;20256;-80
2022/11/03 09:31:57;;;;;;;3.53;1.70;;;;;;;12.10;73.98;100482.28;4993790;28;20197;-79
2022/11/03 09:34:25;;;;;;;4.40;1.40;;;;;;;12.10;73.18;100490.13;4992806;28;20228;-80
2022/11/03 09:36:52;;;;;;;4.00;1.30;;;;;;;12.16;72.94;100510.06;4285558;28;10000736;-80
2022/11/03 09:39:18;;;;;;;2.87;1.40;;;;;;;12.03;73.07;100515.59;4974258;28;20237;-80
2022/11/03 09:41:44;;;;;;;2.93;1.50;;;;;;;12.01;73.20;100511.25;4991877;28;20301;-80
2022/11/03 09:44:11;;;;;;;5.50;1.97;;;;;;;12.08;73.08;100502.38;4992302;28;20217;-80
2022/11/03 09:46:38;;;;;;;4.53;1.43;;;;;;;12.07;73.44;100503.25;4993506;28;20217;-79
2022/11/03 09:49:05;;;;;;;3.20;1.57;;;;;;;12.23;73.35;100490.66;4995332;28;20259;-79
2022/11/03 09:51:36;;;;;;;4.67;1.67;;;;;;;12.29;72.47;100487.91;4991177;28;20229;-80
2022/11/03 09:54:04;;;;;;;4.63;1.70;;;;;;;12.37;73.41;100499.06;4992100;28;20253;-79
2022/11/03 09:56:31;;;;;;;3.63;1.30;;;;;;;12.41;72.89;100505.94;4992151;28;20696;-80
2022/11/03 09:58:59;;;;;;;6.03;2.43;;;;;;;12.41;72.69;100508.53;4993876;28;20754;-79
2022/11/03 10:01:26;;;;;;;6.03;1.50;;;;;;;12.50;72.62;100507.44;4990745;28;20208;-79
2022/11/03 10:03:56;;;;;;;5.60;1.60;;;;;;;12.58;71.66;100518.56;4993294;28;20209;-79
2022/11/03 10:06:23;;;;;;;5.50;1.93;;;;;;;12.66;72.54;100493.03;5001397;28;20215;-80
2022/11/03 10:08:51;;;;;;;4.80;1.90;;;;;;;12.80;72.50;100455.13;5003048;28;20793;-79
2022/11/03 10:11:18;;;;;;;2.87;1.50;;;;;;;12.88;72.62;100464.53;4998532;28;20746;-78
2022/11/03 10:13:47;;;;;;;8.63;1.87;;;;;;;12.90;71.92;100490.66;4997608;28;20210;-79
2022/11/03 10:16:17;;;;;;;5.43;1.70;;;;;;;12.94;71.10;100515.84;4994497;28;20685;-79
2022/11/03 10:18:44;;;;;;;6.57;2.20;;;;;;;13.04;71.19;100514.72;4995334;28;20938;-79
2022/11/03 10:21:15;;;;;;;2.87;1.60;;;;;;;13.05;70.98;100523.44;4994092;28;20294;-79
2022/11/03 10:23:41;;;;;;;4.23;1.53;;;;;;;13.07;71.54;100500.66;4993978;28;20693;-79
2022/11/03 10:26:11;;;;;;;4.60;1.60;;;;;;;13.07;70.86;100516.41;4994285;28;20225;-79
2022/11/03 10:28:39;;;;;;;6.83;1.60;;;;;;;13.00;70.56;100544.53;4994634;28;20267;-78
2022/11/03 10:31:17;;;;;;;4.13;1.90;;;;;;;12.99;70.79;100553.28;4993474;28;20230;-78
2022/11/03 10:33:53;;;;;;;5.83;1.83;;;;;;;13.14;70.86;100548.53;4994084;28;20215;-78
2022/11/03 10:36:25;;;;;;;4.80;1.90;;;;;;;13.13;70.40;100552.06;4993854;28;20232;-78
2022/11/03 10:38:52;;;;;;;4.93;2.00;;;;;;;12.94;70.10;100570.03;4993526;28;20245;-78
2022/11/03 10:41:21;;;;;;;3.93;1.43;;;;;;;12.91;69.84;100561.34;4994105;28;20215;-80
2022/11/03 10:44:01;;;;;;;2.93;1.67;;;;;;;12.76;70.44;100564.38;4998240;28;20218;-80
2022/11/03 10:46:28;;;;;;;5.07;1.90;;;;;;;12.74;70.87;100544.38;4997095;28;20221;-79
2022/11/03 10:49:02;;;;;;;2.47;1.67;;;;;;;12.87;71.00;100504.69;4997109;28;20234;-79
2022/11/03 10:51:29;;;;;;;6.27;2.03;;;;;;;13.01;71.60;100488.59;4996690;28;20928;-79
2022/11/03 10:53:55;;;;;;;6.63;2.00;;;;;;;12.93;70.90;100489.72;4998788;28;20213;-79
2022/11/03 10:56:23;;;;;;;4.23;1.90;;;;;;;12.93;70.94;100487.97;4998265;28;20210;-80
2022/11/03 10:58:51;;;;;;;3.77;1.60;;;;;;;13.08;71.41;100468.31;4998323;28;20246;-79
2022/11/03 11:01:17;;;;;;;4.57;1.90;;;;;;;13.15;71.32;100448.88;4997418;28;20258;-79
2022/11/03 11:03:44;;;;;;;3.80;1.90;;;;;;;13.24;71.17;100448.63;4995623;28;20213;-79
2022/11/03 11:06:23;;;;;;;3.27;1.77;;;;;;;13.25;71.07;100462.59;4995024;28;20245;-79
2022/11/03 11:08:53;;;;;;;4.17;1.70;;;;;;;13.25;70.68;100458.19;4994619;28;20227;-79
2022/11/03 11:11:21;;;;;;;3.73;1.90;;;;;;;13.33;71.04;100452.75;4994217;28;20324;-79
2022/11/03 11:14:23;;;;;;;8.13;2.00;;;;;;;13.37;70.48;100466.63;4995098;28;20211;-79
2022/11/03 11:16:51;;;;;;;3.40;2.20;;;;;;;13.39;70.93;100449.94;4994156;28;20215;-79
2022/11/03 11:19:18;;;;;;;4.63;1.87;;;;;;;13.40;70.49;100440.31;4994244;28;20278;-80
2022/11/03 11:22:13;;;;;;;4.90;2.23;;;;;;;13.51;70.73;100451.34;4994693;28;20211;-80
2022/11/03 11:24:59;;;;;;;5.20;1.97;;;;;;;13.59;70.50;100448.47;4995439;28;20294;-78
2022/11/03 11:28:05;;;;;;;4.70;2.13;;;;;;;13.72;69.63;100457.69;4995024;28;20210;-80
2022/11/03 11:31:24;;;;;;;3.17;1.90;;;;;;;13.76;70.08;100445.34;4994844;28;20222;-80
2022/11/03 11:34:07;;;;;;;4.27;1.97;;;;;;;13.65;69.53;100467.50;4994737;28;20225;-80
2022/11/03 11:36:34;;;;;;;4.60;2.37;;;;;;;13.74;69.93;100445.38;4994948;28;20247;-79
2022/11/03 11:39:02;;;;;;;8.73;2.10;;;;;;;13.78;69.69;100419.91;4994595;28;20239;-81
2022/11/03 11:42:07;;;;;;;5.17;2.17;;;;;;;13.78;69.73;100427.78;4994730;28;20749;-81
2022/11/03 11:44:56;;;;;;;4.10;2.13;;;;;;;13.72;69.77;100423.59;4994222;28;20210;-79
2022/11/03 11:47:49;;;;;;;6.27;1.90;;;;;;;13.72;70.31;100414.88;4994035;28;20211;-80
2022/11/03 11:50:22;;;;;;;6.77;2.17;;;;;;;13.56;69.68;100386.50;4993478;28;20238;-79
2022/11/03 11:52:51;;;;;;;3.67;2.27;;;;;;;13.60;69.65;100400.38;4995216;28;20222;-78
2022/11/03 11:55:20;;;;;;;3.87;1.90;;;;;;;13.63;69.68;100395.03;4995169;28;20211;-79
2022/11/03 11:57:47;;;;;;;5.63;2.20;;;;;;;13.65;69.52;100401.91;4993895;28;20214;-78